sensor_id;sensor_type;location;lat;lon;timestamp;P1;durP1;ratioP1;P2;durP2;ratioP2
15814;SDS011;8008;50.024;8.172;2023-06-22T03:01:09;8.13;;;7.32;;
15814;SDS011;8008;50.024;8.172;2023-06-22T03:03:41;9.40;;;7.57;;
15814;SDS011;8008;50.024;8.172;2023-06-22T03:06:09;10.35;;;7.93;;
15814;SDS011;8008;50.024;8.172;2023-06-22T03:08:40;9.90;;;7.60;;
15814;SDS011;8008;50.024;8.172;2023-06-22T03:11:09;8.35;;;7.45;;
15814;SDS011;8008;50.024;8.172;2023-06-22T03:13:37;9.27;;;8.30;;
15814;SDS011;8008;50.024;8.172;2023-06-22T03:16:06;9.27;;;7.47;;
15814;SDS011;8008;50.024;8.172;2023-06-22T03:18:37;8.63;;;7.68;;
15814;SDS011;8008;50.024;8.172;2023-06-22T03:21:05;9.00;;;8.10;;
15814;SDS011;8008;50.024;8.172;2023-06-22T03:23:33;8.65;;;7.75;;
15814;SDS011;8008;50.024;8.172;2023-06-22T03:26:01;9.88;;;7.88;;
15814;SDS011;8008;50.024;8.172;2023-06-22T03:28:29;8.70;;;7.80;;
15814;SDS011;8008;50.024;8.172;2023-06-22T03:30:57;9.75;;;8.05;;
15814;SDS011;8008;50.024;8.172;2023-06-22T03:33:29;8.40;;;7.60;;
15814;SDS011;8008;50.024;8.172;2023-06-22T03:35:58;10.30;;;8.00;;
15814;SDS011;8008;50.024;8.172;2023-06-22T03:38:26;10.38;;;8.32;;
15814;SDS011;8008;50.024;8.172;2023-06-22T03:40:56;10.07;;;8.43;;
15814;SDS011;8008;50.024;8.172;2023-06-22T03:43:25;10.63;;;8.02;;
15814;SDS011;8008;50.024;8.172;2023-06-22T03:45:55;12.20;;;8.57;;
15814;SDS011;8008;50.024;8.172;2023-06-22T03:48:23;10.82;;;8.38;;
15814;SDS011;8008;50.024;8.172;2023-06-22T03:50:51;10.18;;;7.97;;
15814;SDS011;8008;50.024;8.172;2023-06-22T03:53:20;10.00;;;8.77;;
15814;SDS011;8008;50.024;8.172;2023-06-22T03:55:48;9.25;;;8.15;;
15814;SDS011;8008;50.024;8.172;2023-06-22T03:58:17;11.45;;;8.90;;
15814;SDS011;8008;50.024;8.172;2023-06-22T04:00:46;10.25;;;7.90;;
15814;SDS011;8008;50.024;8.172;2023-06-22T04:03:14;9.00;;;7.95;;
15814;SDS011;8008;50.024;8.172;2023-06-22T04:05:45;10.30;;;8.18;;
15814;SDS011;8008;50.024;8.172;2023-06-22T04:08:14;10.57;;;8.18;;
15814;SDS011;8008;50.024;8.172;2023-06-22T04:10:43;11.52;;;8.55;;
15814;SDS011;8008;50.024;8.172;2023-06-22T04:13:11;8.80;;;7.63;;
15814;SDS011;8008;50.024;8.172;2023-06-22T04:15:39;9.13;;;8.15;;
15814;SDS011;8008;50.024;8.172;2023-06-22T04:18:07;9.68;;;8.43;;
15814;SDS011;8008;50.024;8.172;2023-06-22T04:20:35;12.63;;;8.68;;
15814;SDS011;8008;50.024;8.172;2023-06-22T04:23:03;10.02;;;8.30;;
15814;SDS011;8008;50.024;8.172;2023-06-22T04:25:31;8.50;;;7.60;;
15814;SDS011;8008;50.024;8.172;2023-06-22T04:28:00;10.18;;;8.82;;
15814;SDS011;8008;50.024;8.172;2023-06-22T04:30:29;10.38;;;9.30;;
15814;SDS011;8008;50.024;8.172;2023-06-22T04:32:57;11.70;;;8.10;;
15814;SDS011;8008;50.024;8.172;2023-06-22T04:35:26;10.57;;;8.48;;
15814;SDS011;8008;50.024;8.172;2023-06-22T04:37:58;10.55;;;8.38;;
15814;SDS011;8008;50.024;8.172;2023-06-22T04:40:26;11.35;;;8.60;;
15814;SDS011;8008;50.024;8.172;2023-06-22T04:42:54;9.80;;;8.05;;
15814;SDS011;8008;50.024;8.172;2023-06-22T04:45:24;10.40;;;9.23;;
15814;SDS011;8008;50.024;8.172;2023-06-22T04:47:51;13.63;;;9.52;;
15814;SDS011;8008;50.024;8.172;2023-06-22T04:50:19;10.65;;;8.82;;
15814;SDS011;8008;50.024;8.172;2023-06-22T04:52:50;10.23;;;9.18;;
15814;SDS011;8008;50.024;8.172;2023-06-22T04:55:19;10.15;;;9.15;;
15814;SDS011;8008;50.024;8.172;2023-06-22T04:57:47;10.18;;;8.98;;
15814;SDS011;8008;50.024;8.172;2023-06-22T05:00:16;10.95;;;9.18;;
15814;SDS011;8008;50.024;8.172;2023-06-22T05:02:50;9.90;;;8.90;;
15814;SDS011;8008;50.024;8.172;2023-06-22T05:05:29;11.98;;;9.27;;
15814;SDS011;8008;50.024;8.172;2023-06-22T05:07:57;10.27;;;9.02;;
15814;SDS011;8008;50.024;8.172;2023-06-22T05:10:26;10.38;;;9.02;;
15814;SDS011;8008;50.024;8.172;2023-06-22T05:12:55;10.90;;;9.68;;
15814;SDS011;8008;50.024;8.172;2023-06-22T05:15:23;10.10;;;8.88;;
15814;SDS011;8008;50.024;8.172;2023-06-22T05:17:55;11.85;;;9.80;;
15814;SDS011;8008;50.024;8.172;2023-06-22T05:20:24;10.20;;;9.20;;
15814;SDS011;8008;50.024;8.172;2023-06-22T05:22:53;9.95;;;8.82;;
15814;SDS011;8008;50.024;8.172;2023-06-22T05:25:21;9.70;;;8.60;;
15814;SDS011;8008;50.024;8.172;2023-06-22T05:27:49;10.38;;;8.27;;
15814;SDS011;8008;50.024;8.172;2023-06-22T05:30:18;10.50;;;9.40;;
15814;SDS011;8008;50.024;8.172;2023-06-22T05:32:47;9.73;;;8.73;;
15814;SDS011;8008;50.024;8.172;2023-06-22T05:35:17;9.60;;;8.52;;
15814;SDS011;8008;50.024;8.172;2023-06-22T05:37:45;9.00;;;8.10;;
15814;SDS011;8008;50.024;8.172;2023-06-22T05:40:12;11.02;;;8.15;;
15814;SDS011;8008;50.024;8.172;2023-06-22T05:42:40;12.13;;;8.18;;
15814;SDS011;8008;50.024;8.172;2023-06-22T05:45:09;11.77;;;9.13;;
15814;SDS011;8008;50.024;8.172;2023-06-22T05:47:37;10.27;;;8.55;;
15814;SDS011;8008;50.024;8.172;2023-06-22T05:50:05;11.48;;;8.80;;
15814;SDS011;8008;50.024;8.172;2023-06-22T05:52:39;11.52;;;9.18;;
15814;SDS011;8008;50.024;8.172;2023-06-22T05:55:08;11.48;;;8.93;;
15814;SDS011;8008;50.024;8.172;2023-06-22T05:57:36;11.55;;;8.77;;
15814;SDS011;8008;50.024;8.172;2023-06-22T06:00:04;10.75;;;8.23;;
15814;SDS011;8008;50.024;8.172;2023-06-22T06:02:36;10.55;;;9.35;;
15814;SDS011;8008;50.024;8.172;2023-06-22T06:05:10;12.82;;;8.88;;
15814;SDS011;8008;50.024;8.172;2023-06-22T06:07:41;10.00;;;8.73;;
15814;SDS011;8008;50.024;8.172;2023-06-22T06:10:09;10.43;;;9.13;;
15814;SDS011;8008;50.024;8.172;2023-06-22T06:12:37;10.77;;;8.15;;
15814;SDS011;8008;50.024;8.172;2023-06-22T06:15:06;10.77;;;8.98;;
15814;SDS011;8008;50.024;8.172;2023-06-22T06:17:44;10.95;;;8.40;;
15814;SDS011;8008;50.024;8.172;2023-06-22T06:20:13;12.38;;;8.93;;
15814;SDS011;8008;50.024;8.172;2023-06-22T06:22:42;8.98;;;8.07;;
15814;SDS011;8008;50.024;8.172;2023-06-22T06:25:10;10.93;;;8.27;;
15814;SDS011;8008;50.024;8.172;2023-06-22T06:27:42;11.00;;;8.60;;
15814;SDS011;8008;50.024;8.172;2023-06-22T06:30:11;9.90;;;8.00;;
15814;SDS011;8008;50.024;8.172;2023-06-22T06:32:40;9.15;;;8.20;;
15814;SDS011;8008;50.024;8.172;2023-06-22T06:35:09;10.18;;;8.00;;
15814;SDS011;8008;50.024;8.172;2023-06-22T06:37:37;9.82;;;7.97;;
15814;SDS011;8008;50.024;8.172;2023-06-22T06:40:09;12.15;;;8.13;;
15814;SDS011;8008;50.024;8.172;2023-06-22T06:42:38;9.65;;;8.07;;
15814;SDS011;8008;50.024;8.172;2023-06-22T06:45:09;10.02;;;8.10;;
15814;SDS011;8008;50.024;8.172;2023-06-22T06:47:37;11.68;;;8.43;;
15814;SDS011;8008;50.024;8.172;2023-06-22T06:50:06;10.50;;;8.27;;
15814;SDS011;8008;50.024;8.172;2023-06-22T06:52:34;9.30;;;7.80;;
15814;SDS011;8008;50.024;8.172;2023-06-22T06:55:04;10.90;;;7.80;;
15814;SDS011;8008;50.024;8.172;2023-06-22T06:57:36;10.10;;;7.70;;
15814;SDS011;8008;50.024;8.172;2023-06-22T07:00:05;12.38;;;8.40;;
15814;SDS011;8008;50.024;8.172;2023-06-22T07:02:38;10.80;;;7.95;;
15814;SDS011;8008;50.024;8.172;2023-06-22T07:05:07;8.10;;;7.30;;
15814;SDS011;8008;50.024;8.172;2023-06-22T07:07:36;10.52;;;7.57;;
15814;SDS011;8008;50.024;8.172;2023-06-22T07:10:05;10.55;;;8.00;;
15814;SDS011;8008;50.024;8.172;2023-06-22T07:12:33;9.93;;;7.85;;
15814;SDS011;8008;50.024;8.172;2023-06-22T07:15:03;11.60;;;7.85;;
15814;SDS011;8008;50.024;8.172;2023-06-22T07:17:34;9.43;;;7.95;;
15814;SDS011;8008;50.024;8.172;2023-06-22T07:20:02;9.88;;;8.25;;
15814;SDS011;8008;50.024;8.172;2023-06-22T07:22:35;11.38;;;8.25;;
15814;SDS011;8008;50.024;8.172;2023-06-22T07:25:03;10.65;;;7.68;;
15814;SDS011;8008;50.024;8.172;2023-06-22T07:27:36;8.73;;;7.32;;
15814;SDS011;8008;50.024;8.172;2023-06-22T07:30:06;11.40;;;7.95;;
15814;SDS011;8008;50.024;8.172;2023-06-22T07:32:35;9.85;;;8.02;;
15814;SDS011;8008;50.024;8.172;2023-06-22T07:35:04;9.75;;;7.80;;
15814;SDS011;8008;50.024;8.172;2023-06-22T07:37:33;8.93;;;7.63;;
15814;SDS011;8008;50.024;8.172;2023-06-22T07:40:01;9.23;;;7.32;;
15814;SDS011;8008;50.024;8.172;2023-06-22T07:42:33;11.45;;;8.20;;
15814;SDS011;8008;50.024;8.172;2023-06-22T07:45:01;9.13;;;7.97;;
15814;SDS011;8008;50.024;8.172;2023-06-22T07:47:31;9.82;;;7.90;;
15814;SDS011;8008;50.024;8.172;2023-06-22T07:50:02;9.95;;;8.30;;
15814;SDS011;8008;50.024;8.172;2023-06-22T07:52:30;10.68;;;8.13;;
15814;SDS011;8008;50.024;8.172;2023-06-22T07:54:58;9.50;;;8.05;;
15814;SDS011;8008;50.024;8.172;2023-06-22T07:57:26;8.90;;;8.00;;
15814;SDS011;8008;50.024;8.172;2023-06-22T07:59:59;9.15;;;7.93;;
15814;SDS011;8008;50.024;8.172;2023-06-22T08:02:39;9.35;;;8.40;;
15814;SDS011;8008;50.024;8.172;2023-06-22T08:05:08;9.27;;;8.30;;
15814;SDS011;8008;50.024;8.172;2023-06-22T08:07:47;9.18;;;8.35;;
15814;SDS011;8008;50.024;8.172;2023-06-22T08:10:16;9.60;;;8.60;;
15814;SDS011;8008;50.024;8.172;2023-06-22T08:12:45;10.88;;;8.35;;
15814;SDS011;8008;50.024;8.172;2023-06-22T08:15:13;9.85;;;8.13;;
15814;SDS011;8008;50.024;8.172;2023-06-22T08:17:42;9.15;;;8.25;;
15814;SDS011;8008;50.024;8.172;2023-06-22T08:20:11;9.15;;;8.25;;
15814;SDS011;8008;50.024;8.172;2023-06-22T08:22:39;9.25;;;8.35;;
15814;SDS011;8008;50.024;8.172;2023-06-22T08:25:08;9.75;;;8.75;;
15814;SDS011;8008;50.024;8.172;2023-06-22T08:27:37;9.60;;;8.60;;
15814;SDS011;8008;50.024;8.172;2023-06-22T08:30:05;9.80;;;8.77;;
15814;SDS011;8008;50.024;8.172;2023-06-22T08:32:34;9.45;;;8.45;;
15814;SDS011;8008;50.024;8.172;2023-06-22T08:35:04;9.48;;;8.10;;
15814;SDS011;8008;50.024;8.172;2023-06-22T08:37:34;10.57;;;8.63;;
15814;SDS011;8008;50.024;8.172;2023-06-22T08:40:03;9.15;;;8.23;;
15814;SDS011;8008;50.024;8.172;2023-06-22T08:42:34;9.18;;;8.30;;
15814;SDS011;8008;50.024;8.172;2023-06-22T08:45:02;9.70;;;8.73;;
15814;SDS011;8008;50.024;8.172;2023-06-22T08:47:31;10.07;;;8.60;;
15814;SDS011;8008;50.024;8.172;2023-06-22T08:49:59;9.63;;;8.38;;
15814;SDS011;8008;50.024;8.172;2023-06-22T08:52:30;9.45;;;8.50;;
15814;SDS011;8008;50.024;8.172;2023-06-22T08:54:58;11.35;;;9.02;;
15814;SDS011;8008;50.024;8.172;2023-06-22T08:57:26;9.98;;;8.98;;
15814;SDS011;8008;50.024;8.172;2023-06-22T08:59:54;9.65;;;8.55;;
15814;SDS011;8008;50.024;8.172;2023-06-22T09:02:25;10.40;;;9.30;;
15814;SDS011;8008;50.024;8.172;2023-06-22T09:04:57;9.65;;;8.65;;
15814;SDS011;8008;50.024;8.172;2023-06-22T09:07:25;10.05;;;8.90;;
15814;SDS011;8008;50.024;8.172;2023-06-22T09:09:56;11.73;;;8.85;;
15814;SDS011;8008;50.024;8.172;2023-06-22T09:12:27;9.95;;;8.98;;
15814;SDS011;8008;50.024;8.172;2023-06-22T09:14:56;9.85;;;8.85;;
15814;SDS011;8008;50.024;8.172;2023-06-22T09:17:26;11.15;;;8.70;;
15814;SDS011;8008;50.024;8.172;2023-06-22T09:19:54;10.52;;;8.40;;
15814;SDS011;8008;50.024;8.172;2023-06-22T09:22:23;12.80;;;9.48;;
15814;SDS011;8008;50.024;8.172;2023-06-22T09:24:56;10.88;;;9.15;;
15814;SDS011;8008;50.024;8.172;2023-06-22T09:27:25;10.25;;;9.15;;
15814;SDS011;8008;50.024;8.172;2023-06-22T09:29:53;11.15;;;9.00;;
15814;SDS011;8008;50.024;8.172;2023-06-22T09:32:21;11.38;;;9.55;;
15814;SDS011;8008;50.024;8.172;2023-06-22T09:34:49;11.88;;;8.57;;
15814;SDS011;8008;50.024;8.172;2023-06-22T09:37:17;12.02;;;9.18;;
15814;SDS011;8008;50.024;8.172;2023-06-22T09:39:45;10.02;;;8.60;;
15814;SDS011;8008;50.024;8.172;2023-06-22T09:42:15;9.93;;;8.13;;
15814;SDS011;8008;50.024;8.172;2023-06-22T09:44:43;12.15;;;9.20;;
15814;SDS011;8008;50.024;8.172;2023-06-22T09:47:11;9.48;;;8.55;;
15814;SDS011;8008;50.024;8.172;2023-06-22T09:49:39;10.98;;;8.90;;
15814;SDS011;8008;50.024;8.172;2023-06-22T09:52:14;9.55;;;8.65;;
15814;SDS011;8008;50.024;8.172;2023-06-22T09:54:43;9.68;;;8.68;;
15814;SDS011;8008;50.024;8.172;2023-06-22T09:57:11;10.82;;;9.13;;
15814;SDS011;8008;50.024;8.172;2023-06-22T09:59:40;10.43;;;9.15;;
15814;SDS011;8008;50.024;8.172;2023-06-22T10:02:08;10.00;;;8.88;;
15814;SDS011;8008;50.024;8.172;2023-06-22T10:04:36;10.27;;;9.20;;
15814;SDS011;8008;50.024;8.172;2023-06-22T10:07:06;11.40;;;8.65;;
15814;SDS011;8008;50.024;8.172;2023-06-22T10:09:34;11.40;;;9.23;;
15814;SDS011;8008;50.024;8.172;2023-06-22T10:12:02;9.98;;;8.73;;
15814;SDS011;8008;50.024;8.172;2023-06-22T10:14:30;10.70;;;8.90;;
15814;SDS011;8008;50.024;8.172;2023-06-22T10:17:00;9.88;;;8.95;;
15814;SDS011;8008;50.024;8.172;2023-06-22T10:19:29;9.80;;;8.82;;
15814;SDS011;8008;50.024;8.172;2023-06-22T10:21:57;11.73;;;9.20;;
15814;SDS011;8008;50.024;8.172;2023-06-22T10:24:25;11.65;;;9.23;;
15814;SDS011;8008;50.024;8.172;2023-06-22T10:26:53;11.20;;;9.25;;
15814;SDS011;8008;50.024;8.172;2023-06-22T10:29:21;10.88;;;9.18;;
15814;SDS011;8008;50.024;8.172;2023-06-22T10:31:49;10.65;;;9.60;;
15814;SDS011;8008;50.024;8.172;2023-06-22T10:34:18;10.02;;;9.02;;
15814;SDS011;8008;50.024;8.172;2023-06-22T10:36:46;10.05;;;8.65;;
15814;SDS011;8008;50.024;8.172;2023-06-22T10:39:15;10.00;;;8.63;;
15814;SDS011;8008;50.024;8.172;2023-06-22T10:41:43;9.02;;;8.13;;
15814;SDS011;8008;50.024;8.172;2023-06-22T10:44:11;9.98;;;8.98;;
15814;SDS011;8008;50.024;8.172;2023-06-22T10:46:39;9.55;;;8.57;;
15814;SDS011;8008;50.024;8.172;2023-06-22T10:49:07;9.45;;;8.45;;
15814;SDS011;8008;50.024;8.172;2023-06-22T10:51:37;9.45;;;8.50;;
15814;SDS011;8008;50.024;8.172;2023-06-22T10:54:04;12.38;;;9.10;;
15814;SDS011;8008;50.024;8.172;2023-06-22T10:56:32;9.65;;;8.65;;
15814;SDS011;8008;50.024;8.172;2023-06-22T10:59:00;9.30;;;8.40;;
15814;SDS011;8008;50.024;8.172;2023-06-22T11:01:29;8.55;;;7.57;;
15814;SDS011;8008;50.024;8.172;2023-06-22T11:04:02;9.40;;;7.97;;
15814;SDS011;8008;50.024;8.172;2023-06-22T11:06:31;9.85;;;7.90;;
15814;SDS011;8008;50.024;8.172;2023-06-22T11:09:00;8.90;;;8.00;;
15814;SDS011;8008;50.024;8.172;2023-06-22T11:11:49;9.00;;;8.02;;
15814;SDS011;8008;50.024;8.172;2023-06-22T11:14:19;8.80;;;8.00;;
15814;SDS011;8008;50.024;8.172;2023-06-22T11:16:48;9.10;;;7.55;;
15814;SDS011;8008;50.024;8.172;2023-06-22T11:19:16;8.38;;;7.57;;
15814;SDS011;8008;50.024;8.172;2023-06-22T11:21:44;8.60;;;7.32;;
15814;SDS011;8008;50.024;8.172;2023-06-22T11:24:14;9.38;;;7.05;;
15814;SDS011;8008;50.024;8.172;2023-06-22T11:26:42;7.63;;;6.93;;
15814;SDS011;8008;50.024;8.172;2023-06-22T11:29:10;9.35;;;7.28;;
15814;SDS011;8008;50.024;8.172;2023-06-22T11:31:57;15.35;;;7.15;;
15814;SDS011;8008;50.024;8.172;2023-06-22T11:34:25;15.30;;;7.50;;
15814;SDS011;8008;50.024;8.172;2023-06-22T11:36:54;8.90;;;7.20;;
15814;SDS011;8008;50.024;8.172;2023-06-22T11:39:23;8.85;;;7.22;;
15814;SDS011;8008;50.024;8.172;2023-06-22T11:42:06;9.55;;;7.00;;
15814;SDS011;8008;50.024;8.172;2023-06-22T11:44:35;8.25;;;7.40;;
15814;SDS011;8008;50.024;8.172;2023-06-22T11:47:03;9.52;;;7.53;;
15814;SDS011;8008;50.024;8.172;2023-06-22T11:49:31;7.63;;;6.80;;
15814;SDS011;8008;50.024;8.172;2023-06-22T11:51:59;9.27;;;7.47;;
15814;SDS011;8008;50.024;8.172;2023-06-22T11:54:29;8.70;;;7.13;;
15814;SDS011;8008;50.024;8.172;2023-06-22T11:56:57;9.43;;;7.25;;
15814;SDS011;8008;50.024;8.172;2023-06-22T11:59:24;8.25;;;7.35;;
15814;SDS011;8008;50.024;8.172;2023-06-22T12:01:52;9.80;;;7.32;;
15814;SDS011;8008;50.024;8.172;2023-06-22T12:04:20;8.20;;;7.00;;
15814;SDS011;8008;50.024;8.172;2023-06-22T12:06:48;10.52;;;6.93;;
15814;SDS011;8008;50.024;8.172;2023-06-22T12:09:16;9.50;;;7.32;;
15814;SDS011;8008;50.024;8.172;2023-06-22T12:11:45;12.23;;;7.88;;
15814;SDS011;8008;50.024;8.172;2023-06-22T12:14:13;8.35;;;7.18;;
15814;SDS011;8008;50.024;8.172;2023-06-22T12:16:41;9.45;;;7.20;;
15814;SDS011;8008;50.024;8.172;2023-06-22T12:19:10;8.70;;;7.45;;
15814;SDS011;8008;50.024;8.172;2023-06-22T12:21:38;11.52;;;7.15;;
15814;SDS011;8008;50.024;8.172;2023-06-22T12:24:07;11.85;;;7.95;;
15814;SDS011;8008;50.024;8.172;2023-06-22T12:26:35;9.13;;;7.28;;
15814;SDS011;8008;50.024;8.172;2023-06-22T12:29:04;10.23;;;6.85;;
15814;SDS011;8008;50.024;8.172;2023-06-22T12:31:32;8.45;;;7.55;;
15814;SDS011;8008;50.024;8.172;2023-06-22T12:34:00;9.95;;;7.05;;
15814;SDS011;8008;50.024;8.172;2023-06-22T12:36:28;9.25;;;7.13;;
15814;SDS011;8008;50.024;8.172;2023-06-22T12:38:56;9.88;;;7.55;;
15814;SDS011;8008;50.024;8.172;2023-06-22T12:41:24;9.65;;;7.53;;
15814;SDS011;8008;50.024;8.172;2023-06-22T12:43:52;10.10;;;7.57;;
15814;SDS011;8008;50.024;8.172;2023-06-22T12:46:21;9.77;;;7.25;;
15814;SDS011;8008;50.024;8.172;2023-06-22T12:48:49;8.55;;;6.88;;
15814;SDS011;8008;50.024;8.172;2023-06-22T12:51:20;8.40;;;7.43;;
15814;SDS011;8008;50.024;8.172;2023-06-22T12:53:49;8.38;;;7.32;;
15814;SDS011;8008;50.024;8.172;2023-06-22T12:56:17;13.05;;;7.15;;
15814;SDS011;8008;50.024;8.172;2023-06-22T12:58:45;12.13;;;7.55;;
15814;SDS011;8008;50.024;8.172;2023-06-22T13:01:13;9.55;;;7.35;;
15814;SDS011;8008;50.024;8.172;2023-06-22T13:03:42;8.30;;;6.82;;
15814;SDS011;8008;50.024;8.172;2023-06-22T13:06:10;8.57;;;6.90;;
15814;SDS011;8008;50.024;8.172;2023-06-22T13:08:38;11.35;;;6.82;;
15814;SDS011;8008;50.024;8.172;2023-06-22T13:11:09;9.30;;;6.70;;
15814;SDS011;8008;50.024;8.172;2023-06-22T13:13:38;10.25;;;7.05;;
15814;SDS011;8008;50.024;8.172;2023-06-22T13:16:06;8.85;;;6.85;;
15814;SDS011;8008;50.024;8.172;2023-06-22T13:18:34;9.75;;;7.20;;
15814;SDS011;8008;50.024;8.172;2023-06-22T13:21:04;6.75;;;6.15;;
15814;SDS011;8008;50.024;8.172;2023-06-22T13:23:32;8.82;;;6.85;;
15814;SDS011;8008;50.024;8.172;2023-06-22T13:26:01;8.32;;;6.90;;
15814;SDS011;8008;50.024;8.172;2023-06-22T13:28:29;7.65;;;6.85;;
15814;SDS011;8008;50.024;8.172;2023-06-22T13:30:57;7.97;;;6.63;;
15814;SDS011;8008;50.024;8.172;2023-06-22T13:33:25;8.07;;;6.90;;
15814;SDS011;8008;50.024;8.172;2023-06-22T13:35:53;12.55;;;6.93;;
15814;SDS011;8008;50.024;8.172;2023-06-22T13:38:22;13.65;;;7.38;;
15814;SDS011;8008;50.024;8.172;2023-06-22T13:40:50;8.45;;;6.60;;
15814;SDS011;8008;50.024;8.172;2023-06-22T13:43:18;9.57;;;7.00;;
15814;SDS011;8008;50.024;8.172;2023-06-22T13:45:46;8.50;;;7.57;;
15814;SDS011;8008;50.024;8.172;2023-06-22T13:48:14;10.23;;;7.47;;
15814;SDS011;8008;50.024;8.172;2023-06-22T13:50:42;9.00;;;6.80;;
15814;SDS011;8008;50.024;8.172;2023-06-22T13:53:10;9.30;;;6.90;;
15814;SDS011;8008;50.024;8.172;2023-06-22T13:55:40;11.82;;;7.70;;
15814;SDS011;8008;50.024;8.172;2023-06-22T13:58:08;9.38;;;6.40;;
15814;SDS011;8008;50.024;8.172;2023-06-22T14:00:36;8.38;;;5.78;;
15814;SDS011;8008;50.024;8.172;2023-06-22T14:03:05;10.77;;;5.90;;
15814;SDS011;8008;50.024;8.172;2023-06-22T14:05:33;12.38;;;5.60;;
15814;SDS011;8008;50.024;8.172;2023-06-22T14:08:01;8.57;;;5.30;;
15814;SDS011;8008;50.024;8.172;2023-06-22T14:10:37;9.95;;;6.10;;
15814;SDS011;8008;50.024;8.172;2023-06-22T14:13:06;10.77;;;5.68;;
15814;SDS011;8008;50.024;8.172;2023-06-22T14:15:35;12.10;;;5.50;;
15814;SDS011;8008;50.024;8.172;2023-06-22T14:18:03;10.02;;;5.30;;
15814;SDS011;8008;50.024;8.172;2023-06-22T14:20:30;9.48;;;5.47;;
15814;SDS011;8008;50.024;8.172;2023-06-22T14:22:59;9.55;;;5.88;;
15814;SDS011;8008;50.024;8.172;2023-06-22T14:25:27;9.38;;;5.80;;
15814;SDS011;8008;50.024;8.172;2023-06-22T14:27:55;10.75;;;5.72;;
15814;SDS011;8008;50.024;8.172;2023-06-22T14:30:24;8.18;;;5.55;;
15814;SDS011;8008;50.024;8.172;2023-06-22T14:32:52;10.85;;;5.88;;
15814;SDS011;8008;50.024;8.172;2023-06-22T14:35:21;12.85;;;5.80;;
15814;SDS011;8008;50.024;8.172;2023-06-22T14:37:50;9.05;;;5.53;;
15814;SDS011;8008;50.024;8.172;2023-06-22T14:40:18;9.25;;;5.32;;
15814;SDS011;8008;50.024;8.172;2023-06-22T14:42:48;12.15;;;6.03;;
15814;SDS011;8008;50.024;8.172;2023-06-22T14:45:16;11.15;;;5.60;;
15814;SDS011;8008;50.024;8.172;2023-06-22T14:47:46;12.40;;;5.93;;
15814;SDS011;8008;50.024;8.172;2023-06-22T14:50:14;12.88;;;5.85;;
15814;SDS011;8008;50.024;8.172;2023-06-22T14:52:42;10.70;;;5.25;;
15814;SDS011;8008;50.024;8.172;2023-06-22T14:55:10;9.27;;;5.60;;
15814;SDS011;8008;50.024;8.172;2023-06-22T14:57:38;12.80;;;5.53;;
15814;SDS011;8008;50.024;8.172;2023-06-22T15:00:07;11.05;;;5.22;;
15814;SDS011;8008;50.024;8.172;2023-06-22T15:02:35;13.75;;;5.32;;
15814;SDS011;8008;50.024;8.172;2023-06-22T15:05:05;11.20;;;5.05;;
15814;SDS011;8008;50.024;8.172;2023-06-22T15:07:33;12.65;;;4.72;;
15814;SDS011;8008;50.024;8.172;2023-06-22T15:10:01;16.38;;;5.38;;
15814;SDS011;8008;50.024;8.172;2023-06-22T15:12:29;10.10;;;5.15;;
15814;SDS011;8008;50.024;8.172;2023-06-22T15:14:57;12.32;;;5.13;;
15814;SDS011;8008;50.024;8.172;2023-06-22T15:17:25;9.65;;;4.97;;
15814;SDS011;8008;50.024;8.172;2023-06-22T15:19:56;14.70;;;5.40;;
15814;SDS011;8008;50.024;8.172;2023-06-22T15:22:27;12.75;;;5.25;;
15814;SDS011;8008;50.024;8.172;2023-06-22T15:24:55;12.35;;;5.50;;
15814;SDS011;8008;50.024;8.172;2023-06-22T15:27:24;14.93;;;5.18;;
15814;SDS011;8008;50.024;8.172;2023-06-22T15:29:52;12.52;;;4.93;;
15814;SDS011;8008;50.024;8.172;2023-06-22T15:32:20;18.17;;;5.63;;
15814;SDS011;8008;50.024;8.172;2023-06-22T15:34:48;11.38;;;5.13;;
15814;SDS011;8008;50.024;8.172;2023-06-22T15:37:20;13.25;;;5.53;;
15814;SDS011;8008;50.024;8.172;2023-06-22T15:39:49;11.88;;;5.90;;
15814;SDS011;8008;50.024;8.172;2023-06-22T15:42:17;23.88;;;5.53;;
15814;SDS011;8008;50.024;8.172;2023-06-22T15:44:45;22.08;;;5.75;;
15814;SDS011;8008;50.024;8.172;2023-06-22T15:47:13;32.80;;;6.57;;
15814;SDS011;8008;50.024;8.172;2023-06-22T15:49:40;12.52;;;6.15;;
15814;SDS011;8008;50.024;8.172;2023-06-22T15:52:09;40.13;;;8.05;;
15814;SDS011;8008;50.024;8.172;2023-06-22T15:54:37;15.23;;;6.80;;
15814;SDS011;8008;50.024;8.172;2023-06-22T15:57:06;17.15;;;7.07;;
15814;SDS011;8008;50.024;8.172;2023-06-22T15:59:34;14.32;;;6.85;;
15814;SDS011;8008;50.024;8.172;2023-06-22T16:02:02;15.75;;;8.07;;
15814;SDS011;8008;50.024;8.172;2023-06-22T16:04:30;15.50;;;6.90;;
15814;SDS011;8008;50.024;8.172;2023-06-22T16:06:58;14.90;;;6.32;;
15814;SDS011;8008;50.024;8.172;2023-06-22T16:09:26;15.55;;;7.28;;
15814;SDS011;8008;50.024;8.172;2023-06-22T16:11:55;13.07;;;6.20;;
15814;SDS011;8008;50.024;8.172;2023-06-22T16:14:24;14.60;;;6.95;;
15814;SDS011;8008;50.024;8.172;2023-06-22T16:16:52;13.40;;;6.57;;
15814;SDS011;8008;50.024;8.172;2023-06-22T16:19:20;14.57;;;6.97;;
15814;SDS011;8008;50.024;8.172;2023-06-22T16:21:48;14.68;;;7.28;;
15814;SDS011;8008;50.024;8.172;2023-06-22T16:24:16;14.30;;;6.18;;
15814;SDS011;8008;50.024;8.172;2023-06-22T16:26:44;12.45;;;6.28;;
15814;SDS011;8008;50.024;8.172;2023-06-22T16:29:14;10.35;;;6.00;;
15814;SDS011;8008;50.024;8.172;2023-06-22T16:31:43;10.52;;;6.10;;
15814;SDS011;8008;50.024;8.172;2023-06-22T16:34:11;11.07;;;6.25;;
15814;SDS011;8008;50.024;8.172;2023-06-22T16:36:39;13.25;;;6.43;;
15814;SDS011;8008;50.024;8.172;2023-06-22T16:39:07;11.50;;;5.90;;
15814;SDS011;8008;50.024;8.172;2023-06-22T16:41:35;14.07;;;6.85;;
15814;SDS011;8008;50.024;8.172;2023-06-22T16:44:03;11.02;;;6.35;;
15814;SDS011;8008;50.024;8.172;2023-06-22T16:46:33;15.65;;;6.43;;
15814;SDS011;8008;50.024;8.172;2023-06-22T16:49:02;18.25;;;6.70;;
15814;SDS011;8008;50.024;8.172;2023-06-22T16:51:30;15.85;;;7.45;;
15814;SDS011;8008;50.024;8.172;2023-06-22T16:53:58;12.82;;;6.43;;
15814;SDS011;8008;50.024;8.172;2023-06-22T16:56:26;13.30;;;6.68;;
15814;SDS011;8008;50.024;8.172;2023-06-22T16:58:57;12.55;;;6.25;;
15814;SDS011;8008;50.024;8.172;2023-06-22T17:01:33;12.73;;;5.93;;
15814;SDS011;8008;50.024;8.172;2023-06-22T17:04:06;15.35;;;6.53;;
15814;SDS011;8008;50.024;8.172;2023-06-22T17:06:35;16.90;;;8.20;;
15814;SDS011;8008;50.024;8.172;2023-06-22T17:09:04;12.70;;;5.97;;
15814;SDS011;8008;50.024;8.172;2023-06-22T17:11:33;13.38;;;6.28;;
15814;SDS011;8008;50.024;8.172;2023-06-22T17:14:01;11.43;;;6.15;;
15814;SDS011;8008;50.024;8.172;2023-06-22T17:16:29;10.52;;;6.50;;
15814;SDS011;8008;50.024;8.172;2023-06-22T17:18:59;11.57;;;6.15;;
15814;SDS011;8008;50.024;8.172;2023-06-22T17:21:33;10.35;;;5.82;;
15814;SDS011;8008;50.024;8.172;2023-06-22T17:24:01;10.25;;;5.72;;
15814;SDS011;8008;50.024;8.172;2023-06-22T17:26:30;11.13;;;5.50;;
15814;SDS011;8008;50.024;8.172;2023-06-22T17:28:58;12.45;;;5.57;;
15814;SDS011;8008;50.024;8.172;2023-06-22T17:31:35;9.88;;;5.30;;
15814;SDS011;8008;50.024;8.172;2023-06-22T17:34:06;10.65;;;5.30;;
15814;SDS011;8008;50.024;8.172;2023-06-22T17:36:43;11.45;;;5.35;;
15814;SDS011;8008;50.024;8.172;2023-06-22T17:39:13;11.93;;;5.05;;
15814;SDS011;8008;50.024;8.172;2023-06-22T17:41:42;14.07;;;5.45;;
15814;SDS011;8008;50.024;8.172;2023-06-22T17:44:13;10.75;;;5.05;;
15814;SDS011;8008;50.024;8.172;2023-06-22T17:46:44;7.75;;;4.35;;
15814;SDS011;8008;50.024;8.172;2023-06-22T17:49:12;7.05;;;4.55;;
15814;SDS011;8008;50.024;8.172;2023-06-22T17:51:43;8.77;;;4.32;;
15814;SDS011;8008;50.024;8.172;2023-06-22T17:54:10;12.55;;;4.72;;
15814;SDS011;8008;50.024;8.172;2023-06-22T17:56:39;11.27;;;4.30;;
15814;SDS011;8008;50.024;8.172;2023-06-22T17:59:07;7.70;;;4.05;;
15814;SDS011;8008;50.024;8.172;2023-06-22T18:01:35;8.98;;;4.57;;
15814;SDS011;8008;50.024;8.172;2023-06-22T18:04:05;7.72;;;4.45;;